createdAt,value
2018-08-19T00:01:18.313Z,14.37
2018-08-19T00:03:49.017Z,13.40
2018-08-19T00:06:20.050Z,14.70
2018-08-19T00:08:51.158Z,14.13
2018-08-19T00:11:22.183Z,14.40
2018-08-19T00:13:53.428Z,15.00
2018-08-19T00:16:24.188Z,15.73
2018-08-19T00:18:55.008Z,15.73
2018-08-19T00:21:25.903Z,16.30
2018-08-19T00:23:57.055Z,16.87
2018-08-19T00:26:27.846Z,15.57
2018-08-19T00:28:58.535Z,15.07
2018-08-19T00:31:29.940Z,13.63
2018-08-19T00:34:00.064Z,14.83
2018-08-19T00:36:35.968Z,14.43
2018-08-19T00:39:09.097Z,14.03
2018-08-19T00:41:40.117Z,15.33
2018-08-19T00:44:11.198Z,17.13
2018-08-19T00:46:42.753Z,15.70
2018-08-19T00:49:13.773Z,15.50
2018-08-19T00:51:50.151Z,15.80
2018-08-19T00:54:21.601Z,14.60
2018-08-19T00:56:56.426Z,14.20
2018-08-19T00:59:28.968Z,14.93
2018-08-19T01:01:59.829Z,15.93
2018-08-19T01:04:30.944Z,15.03
2018-08-19T01:07:02.911Z,15.23
2018-08-19T01:09:33.965Z,15.03
2018-08-19T01:12:04.653Z,15.20
2018-08-19T01:14:36.268Z,14.93
2018-08-19T01:17:07.385Z,13.87
2018-08-19T01:19:39.003Z,14.87
2018-08-19T01:22:09.721Z,14.87
2018-08-19T01:24:40.514Z,14.17
2018-08-19T01:27:11.517Z,15.53
2018-08-19T01:29:54.077Z,15.23
2018-08-19T01:32:36.458Z,14.40
2018-08-19T01:35:07.506Z,15.37
2018-08-19T01:37:40.388Z,15.70
2018-08-19T01:40:16.284Z,15.30
2018-08-19T01:42:47.325Z,15.07
2018-08-19T01:45:17.689Z,14.87
2018-08-19T01:47:48.337Z,16.73
2018-08-19T01:50:18.953Z,15.53
2018-08-19T01:52:51.018Z,16.03
2018-08-19T01:55:22.581Z,17.90
2018-08-19T01:57:53.550Z,17.73
2018-08-19T02:00:23.504Z,17.10
2018-08-19T02:03:04.728Z,17.07
2018-08-19T02:05:35.681Z,16.90
2018-08-19T02:08:06.393Z,16.67
2018-08-19T02:10:37.379Z,15.03
2018-08-19T02:13:07.481Z,16.47
2018-08-19T02:15:38.129Z,16.70
2018-08-19T02:18:08.963Z,16.40
2018-08-19T02:20:42.020Z,17.53
2018-08-19T02:23:14.034Z,18.00
2018-08-19T02:25:48.190Z,18.30
2018-08-19T02:28:22.128Z,18.80
2018-08-19T02:30:57.468Z,19.53
2018-08-19T02:33:29.833Z,18.77
2018-08-19T02:36:08.860Z,18.60
2018-08-19T02:38:39.740Z,18.13
2018-08-19T02:41:10.644Z,19.10
2018-08-19T02:43:47.148Z,18.80
2018-08-19T02:46:18.620Z,19.40
2018-08-19T02:48:50.455Z,19.37
2018-08-19T02:51:21.822Z,19.93
2018-08-19T02:53:53.071Z,21.07
2018-08-19T02:56:23.956Z,19.77
2018-08-19T02:58:54.841Z,20.13
2018-08-19T03:01:25.673Z,21.93
2018-08-19T03:03:56.724Z,19.67
2018-08-19T03:06:27.614Z,20.50
2018-08-19T03:08:59.937Z,20.93
2018-08-19T03:11:30.532Z,19.73
2018-08-19T03:14:01.461Z,19.43
2018-08-19T03:16:34.087Z,20.93
2018-08-19T03:19:04.690Z,18.90
2018-08-19T03:21:35.657Z,19.63
2018-08-19T03:24:06.499Z,20.47
2018-08-19T03:26:37.897Z,19.03
2018-08-19T03:29:13.910Z,19.13
2018-08-19T03:31:47.791Z,19.03
2018-08-19T03:34:18.482Z,17.93
2018-08-19T03:36:49.078Z,18.27
2018-08-19T03:39:20.101Z,17.67
2018-08-19T03:41:50.914Z,17.50
2018-08-19T03:44:21.877Z,16.73
2018-08-19T03:46:51.936Z,17.80
2018-08-19T03:49:23.181Z,17.40
2018-08-19T03:51:54.013Z,17.57
2018-08-19T03:54:24.640Z,17.67
2018-08-19T03:56:55.149Z,17.77
2018-08-19T03:59:25.543Z,18.07
2018-08-19T04:01:56.035Z,17.70
2018-08-19T04:04:25.973Z,16.70
2018-08-19T04:06:55.917Z,16.53
2018-08-19T04:09:26.341Z,16.97
2018-08-19T04:12:08.767Z,17.03
2018-08-19T04:14:38.564Z,18.17
2018-08-19T04:17:09.465Z,18.47
2018-08-19T04:19:39.210Z,17.97
2018-08-19T04:22:09.065Z,18.90
2018-08-19T04:24:39.898Z,18.40
2018-08-19T04:27:11.998Z,19.27
2018-08-19T04:29:43.026Z,19.87
2018-08-19T04:32:19.524Z,19.63
2018-08-19T04:34:50.511Z,20.03
2018-08-19T04:37:21.613Z,18.90
2018-08-19T04:39:52.476Z,18.97
2018-08-19T04:42:23.194Z,18.33
2018-08-19T04:44:54.620Z,19.17
2018-08-19T04:47:31.310Z,18.53
2018-08-19T04:50:01.946Z,19.50
2018-08-19T04:52:34.033Z,18.50
2018-08-19T04:55:03.915Z,18.50
2018-08-19T04:57:34.842Z,17.07
2018-08-19T05:00:05.492Z,17.00
2018-08-19T05:02:36.445Z,16.70
2018-08-19T05:05:07.958Z,15.47
2018-08-19T05:07:38.144Z,15.63
2018-08-19T05:10:08.077Z,15.90
2018-08-19T05:12:37.958Z,14.77
2018-08-19T05:15:08.544Z,15.80
2018-08-19T05:17:39.294Z,14.67
2018-08-19T05:20:15.024Z,15.40
2018-08-19T05:22:45.880Z,14.23
2018-08-19T05:25:15.794Z,12.63
2018-08-19T05:27:47.556Z,13.80
2018-08-19T05:30:17.472Z,12.57
2018-08-19T05:32:52.810Z,11.50
2018-08-19T05:35:23.125Z,11.47
2018-08-19T05:37:53.845Z,10.70
2018-08-19T05:40:23.812Z,10.13
2018-08-19T05:42:53.923Z,10.70
2018-08-19T05:45:24.193Z,9.23
2018-08-19T05:48:05.578Z,9.80
2018-08-19T05:50:35.757Z,9.07
2018-08-19T05:53:06.592Z,8.93
2018-08-19T05:55:37.935Z,8.97
2018-08-19T05:58:08.850Z,9.20
2018-08-19T06:00:44.445Z,10.10
2018-08-19T06:03:15.305Z,9.23
2018-08-19T06:05:46.072Z,10.00
2018-08-19T06:08:17.363Z,9.60
2018-08-19T06:10:48.179Z,9.90
2018-08-19T06:13:18.574Z,9.47
2018-08-19T06:15:49.459Z,10.70
2018-08-19T06:18:20.011Z,8.80
2018-08-19T06:20:50.981Z,9.33
2018-08-19T06:23:22.767Z,9.10
2018-08-19T06:25:53.876Z,8.77
2018-08-19T06:28:24.360Z,8.63
2018-08-19T06:30:55.790Z,9.03
2018-08-19T06:33:26.554Z,8.60
2018-08-19T06:35:57.652Z,8.40
2018-08-19T06:38:28.746Z,8.87
2018-08-19T06:40:59.635Z,9.10
2018-08-19T06:43:30.498Z,9.00
2018-08-19T06:46:01.386Z,9.93
2018-08-19T06:48:32.557Z,10.20
2018-08-19T06:51:04.369Z,10.87
2018-08-19T06:53:35.295Z,9.83
2018-08-19T06:56:05.967Z,13.70
2018-08-19T06:58:36.708Z,11.70
2018-08-19T07:01:07.513Z,8.83
2018-08-19T07:03:42.212Z,9.60
2018-08-19T07:06:13.070Z,8.77
2018-08-19T07:08:43.257Z,9.07
2018-08-19T07:11:14.087Z,9.53
2018-08-19T07:13:44.707Z,9.10
2018-08-19T07:16:15.566Z,8.50
2018-08-19T07:18:45.586Z,7.90
2018-08-19T07:21:15.723Z,8.57
2018-08-19T07:23:47.221Z,7.67
2018-08-19T07:26:18.107Z,8.23
2018-08-19T07:28:48.888Z,7.53
2018-08-19T07:31:19.809Z,7.10
2018-08-19T07:33:50.864Z,7.27
2018-08-19T07:36:21.529Z,7.37
2018-08-19T07:38:51.948Z,7.40
2018-08-19T07:41:22.626Z,7.13
2018-08-19T07:43:53.470Z,6.97
2018-08-19T07:46:24.322Z,6.87
2018-08-19T07:48:55.033Z,6.63
2018-08-19T07:51:25.913Z,7.70
2018-08-19T07:53:57.223Z,7.00
2018-08-19T07:56:27.545Z,7.00
2018-08-19T07:59:15.166Z,7.20
2018-08-19T08:01:47.012Z,7.40
2018-08-19T08:04:18.087Z,7.13
2018-08-19T08:06:49.910Z,6.83
2018-08-19T08:09:19.844Z,7.60
2018-08-19T08:11:50.545Z,6.77
2018-08-19T08:14:21.405Z,6.67
2018-08-19T08:16:54.909Z,5.83
2018-08-19T08:19:26.109Z,6.70
2018-08-19T08:22:03.385Z,6.47
2018-08-19T08:24:34.237Z,6.00
2018-08-19T08:27:07.574Z,6.33
2018-08-19T08:29:38.567Z,6.60
2018-08-19T08:32:09.330Z,6.20
2018-08-19T08:34:40.076Z,5.77
2018-08-19T08:37:12.964Z,6.57
2018-08-19T08:39:43.974Z,5.23
2018-08-19T08:42:14.523Z,6.10
2018-08-19T08:44:45.642Z,5.57
2018-08-19T08:47:16.487Z,4.70
2018-08-19T08:49:47.160Z,4.97
2018-08-19T08:52:24.520Z,5.20
2018-08-19T08:54:58.185Z,5.80
2018-08-19T08:57:28.997Z,4.93
2018-08-19T09:00:00.439Z,4.60
2018-08-19T09:02:31.246Z,4.80
2018-08-19T09:05:02.634Z,4.10
2018-08-19T09:07:33.519Z,4.37
2018-08-19T09:10:04.825Z,4.57
2018-08-19T09:12:45.383Z,4.67
2018-08-19T09:15:16.454Z,4.93
2018-08-19T09:17:47.429Z,4.93
2018-08-19T09:20:18.457Z,4.17
2018-08-19T09:22:49.938Z,4.43
2018-08-19T09:25:20.220Z,4.53
2018-08-19T09:27:50.983Z,4.30
2018-08-19T09:30:31.562Z,4.37
2018-08-19T09:33:03.048Z,4.03
2018-08-19T09:35:35.375Z,4.40
2018-08-19T09:38:12.034Z,3.75
2018-08-19T09:40:42.207Z,3.98
2018-08-19T09:43:13.543Z,4.08
2018-08-19T09:45:44.628Z,4.42
2018-08-19T09:48:15.698Z,4.12
2018-08-19T09:50:46.371Z,4.15
2018-08-19T09:53:17.226Z,3.83
2018-08-19T09:56:20.088Z,3.70
2018-08-19T09:59:06.739Z,3.90
2018-08-19T10:01:40.922Z,3.90
2018-08-19T10:04:17.347Z,3.77
2018-08-19T10:06:50.578Z,4.28
2018-08-19T10:09:20.299Z,3.60
2018-08-19T10:11:50.504Z,3.55
2018-08-19T10:14:20.642Z,4.25
2018-08-19T10:16:50.795Z,3.70
2018-08-19T10:19:23.347Z,3.65
2018-08-19T10:21:53.215Z,3.70
2018-08-19T10:24:30.121Z,3.52
2018-08-19T10:27:00.671Z,4.47
2018-08-19T10:29:30.737Z,3.80
2018-08-19T10:32:02.576Z,3.98
2018-08-19T10:34:33.546Z,3.92
2018-08-19T10:37:03.948Z,3.92
2018-08-19T10:39:33.686Z,4.35
2018-08-19T10:42:19.449Z,3.70
2018-08-19T10:44:51.540Z,3.75
2018-08-19T10:47:21.888Z,3.95
2018-08-19T10:49:58.671Z,4.12
2018-08-19T10:52:30.380Z,3.70
2018-08-19T10:55:01.421Z,3.92
2018-08-19T10:57:31.461Z,3.92
2018-08-19T11:00:01.510Z,3.65
2018-08-19T11:02:31.594Z,3.45
2018-08-19T11:05:01.716Z,3.75
2018-08-19T11:07:31.666Z,3.75
2018-08-19T11:10:24.828Z,3.90
2018-08-19T11:12:57.681Z,3.95
2018-08-19T11:15:46.855Z,3.80
2018-08-19T11:18:23.656Z,3.92
2018-08-19T11:20:56.667Z,4.00
2018-08-19T11:23:27.538Z,3.75
2018-08-19T11:25:58.526Z,4.20
2018-08-19T11:28:38.820Z,3.70
2018-08-19T11:31:16.606Z,4.15
2018-08-19T11:33:46.778Z,4.20
2018-08-19T11:36:16.734Z,3.50
2018-08-19T11:38:52.437Z,3.62
2018-08-19T11:41:22.491Z,4.50
2018-08-19T11:43:52.738Z,3.90
2018-08-19T11:46:22.601Z,3.83
2018-08-19T11:48:57.964Z,4.28
2018-08-19T11:51:42.166Z,3.60
2018-08-19T11:54:13.951Z,4.20
2018-08-19T11:56:54.978Z,4.28
2018-08-19T11:59:30.844Z,4.22
2018-08-19T12:02:01.200Z,4.33
2018-08-19T12:04:31.302Z,4.20
2018-08-19T12:07:01.515Z,4.58
2018-08-19T12:09:31.501Z,3.90
2018-08-19T12:12:01.528Z,4.85
2018-08-19T12:14:36.367Z,4.67
2018-08-19T12:17:09.765Z,4.72
2018-08-19T12:19:42.619Z,4.55
2018-08-19T12:22:12.549Z,4.72
2018-08-19T12:24:45.502Z,4.78
2018-08-19T12:27:16.802Z,4.60
2018-08-19T12:29:47.451Z,4.72
2018-08-19T12:32:23.182Z,4.37
2018-08-19T12:34:54.167Z,4.45
2018-08-19T12:37:25.077Z,4.75
2018-08-19T12:39:55.649Z,4.65
2018-08-19T12:42:25.934Z,4.30
2018-08-19T12:45:01.516Z,4.30
2018-08-19T12:47:31.493Z,4.75
2018-08-19T12:50:04.471Z,4.40
2018-08-19T12:52:34.925Z,4.58
2018-08-19T12:55:10.318Z,4.58
2018-08-19T12:57:41.197Z,4.47
2018-08-19T13:00:20.524Z,4.70
2018-08-19T13:02:51.993Z,6.05
2018-08-19T13:05:22.327Z,5.78
2018-08-19T13:07:52.380Z,5.10
2018-08-19T13:10:22.701Z,6.50
2018-08-19T13:12:57.049Z,6.40
2018-08-19T13:15:29.225Z,5.78
2018-08-19T13:17:59.314Z,6.27
2018-08-19T13:20:29.314Z,6.80
2018-08-19T13:23:02.406Z,6.30
2018-08-19T13:25:34.051Z,5.70
2018-08-19T13:28:05.183Z,5.43
2018-08-19T13:30:36.308Z,6.13
2018-08-19T13:33:07.141Z,6.77
2018-08-19T13:35:38.048Z,7.00
2018-08-19T13:38:08.920Z,6.20
2018-08-19T13:40:39.936Z,6.53
2018-08-19T13:43:10.980Z,6.10
2018-08-19T13:45:43.213Z,6.43
2018-08-19T13:48:13.961Z,6.60
2018-08-19T13:50:44.641Z,7.03
2018-08-19T13:53:15.157Z,7.73
2018-08-19T13:55:46.004Z,7.50
2018-08-19T13:58:16.863Z,7.10
2018-08-19T14:00:48.169Z,6.50
2018-08-19T14:03:19.338Z,6.77
2018-08-19T14:05:49.413Z,6.47
2018-08-19T14:08:20.172Z,6.17
2018-08-19T14:10:50.748Z,5.83
2018-08-19T14:13:21.267Z,5.78
2018-08-19T14:15:51.367Z,5.42
2018-08-19T14:18:22.259Z,8.73
2018-08-19T14:20:54.576Z,9.38
2018-08-19T14:23:26.136Z,6.87
2018-08-19T14:25:57.426Z,7.05
2018-08-19T14:28:28.635Z,7.00
2018-08-19T14:30:59.925Z,5.95
2018-08-19T14:33:31.188Z,6.62
2018-08-19T14:36:02.416Z,5.30
2018-08-19T14:38:33.540Z,5.42
2018-08-19T14:41:04.953Z,5.80
2018-08-19T14:43:45.210Z,5.47
2018-08-19T14:46:15.448Z,6.72
2018-08-19T14:48:45.850Z,6.05
2018-08-19T14:51:16.937Z,6.62
2018-08-19T14:53:48.981Z,5.95
2018-08-19T14:56:19.964Z,6.37
2018-08-19T14:58:50.617Z,6.40
2018-08-19T15:01:21.382Z,5.28
2018-08-19T15:03:57.337Z,5.40
2018-08-19T15:06:28.333Z,6.03
2018-08-19T15:08:59.234Z,5.00
2018-08-19T15:11:30.091Z,4.62
2018-08-19T15:14:05.462Z,4.30
2018-08-19T15:16:36.346Z,4.47
2018-08-19T15:19:07.104Z,5.07
2018-08-19T15:21:38.848Z,4.53
2018-08-19T15:24:10.153Z,4.70
2018-08-19T15:26:41.245Z,4.47
2018-08-19T15:29:17.104Z,4.70
2018-08-19T15:31:48.839Z,4.70
2018-08-19T15:34:20.443Z,5.20
2018-08-19T15:36:51.339Z,5.03
2018-08-19T15:39:22.484Z,4.70
2018-08-19T15:41:53.352Z,4.70
2018-08-19T15:44:24.093Z,5.53
2018-08-19T15:46:55.599Z,5.10
2018-08-19T15:49:26.927Z,5.40
2018-08-19T15:51:57.695Z,5.00
2018-08-19T15:54:29.022Z,5.63
2018-08-19T15:57:03.132Z,4.73
2018-08-19T15:59:37.928Z,5.37
2018-08-19T16:02:08.871Z,5.27
2018-08-19T16:04:39.952Z,5.00
2018-08-19T16:07:09.876Z,5.13
2018-08-19T16:09:40.166Z,5.70
2018-08-19T16:12:10.025Z,5.65
2018-08-19T16:14:39.839Z,4.92
2018-08-19T16:17:09.713Z,4.77
2018-08-19T16:19:39.629Z,5.12
2018-08-19T16:22:09.641Z,5.30
2018-08-19T16:24:39.607Z,5.20
2018-08-19T16:27:09.844Z,5.80
2018-08-19T16:29:39.725Z,5.70
2018-08-19T16:32:09.828Z,6.25
2018-08-19T16:34:39.626Z,6.00
2018-08-19T16:37:09.727Z,4.97
2018-08-19T16:39:39.714Z,5.40
2018-08-19T16:42:09.585Z,5.70
2018-08-19T16:44:39.918Z,5.40
2018-08-19T16:47:09.692Z,5.17
2018-08-19T16:49:39.440Z,5.60
2018-08-19T16:52:09.288Z,5.60
2018-08-19T16:54:39.108Z,5.73
2018-08-19T16:57:09.002Z,5.80
2018-08-19T16:59:38.738Z,6.67
2018-08-19T17:02:08.531Z,6.43
2018-08-19T17:04:38.979Z,5.77
2018-08-19T17:07:10.258Z,5.90
2018-08-19T17:09:40.473Z,6.43
2018-08-19T17:12:10.208Z,6.53
2018-08-19T17:14:40.044Z,6.03
2018-08-19T17:17:10.299Z,6.10
2018-08-19T17:19:41.340Z,6.63
2018-08-19T17:22:12.585Z,6.40
2018-08-19T17:24:42.651Z,6.47
2018-08-19T17:27:13.437Z,6.90
2018-08-19T17:29:43.350Z,6.40
2018-08-19T17:32:13.337Z,6.30
2018-08-19T17:34:43.209Z,6.83
2018-08-19T17:37:12.999Z,6.00
2018-08-19T17:39:43.367Z,6.43
2018-08-19T17:42:13.001Z,6.37
2018-08-19T17:44:42.799Z,7.27
2018-08-19T17:47:12.621Z,6.73
2018-08-19T17:49:42.526Z,7.03
2018-08-19T17:52:12.331Z,7.47
2018-08-19T17:54:42.290Z,6.97
2018-08-19T17:57:12.174Z,7.60
2018-08-19T17:59:42.058Z,7.63
2018-08-19T18:02:12.064Z,7.33
2018-08-19T18:04:48.301Z,7.30
2018-08-19T18:07:23.087Z,8.00
2018-08-19T18:09:57.801Z,7.80
2018-08-19T18:12:27.760Z,8.43
2018-08-19T18:14:57.865Z,7.80
2018-08-19T18:17:27.857Z,7.60
2018-08-19T18:19:57.849Z,8.13
2018-08-19T18:22:27.757Z,8.50
2018-08-19T18:25:03.141Z,8.40
2018-08-19T18:27:32.992Z,8.27
2018-08-19T18:30:04.173Z,8.87
2018-08-19T18:32:34.059Z,8.77
2018-08-19T18:35:05.064Z,9.37
2018-08-19T18:37:36.332Z,8.63
2018-08-19T18:40:07.388Z,9.13
2018-08-19T18:42:40.411Z,9.40
2018-08-19T18:45:12.488Z,9.50
2018-08-19T18:47:49.947Z,9.30
2018-08-19T18:50:24.150Z,8.90
2018-08-19T18:52:55.354Z,9.70
2018-08-19T18:55:26.244Z,9.30
2018-08-19T18:57:57.495Z,10.00
2018-08-19T19:00:28.247Z,9.33
2018-08-19T19:03:00.965Z,9.63
2018-08-19T19:05:40.733Z,9.37
2018-08-19T19:08:16.237Z,10.53
2018-08-19T19:11:19.861Z,10.17
2018-08-19T19:13:51.415Z,9.77
2018-08-19T19:16:41.196Z,10.10
2018-08-19T19:19:13.096Z,9.13
2018-08-19T19:21:49.499Z,9.37
2018-08-19T19:24:25.542Z,10.10
2018-08-19T19:26:56.837Z,10.23
2018-08-19T19:29:27.601Z,10.57
2018-08-19T19:31:59.547Z,10.83
2018-08-19T19:34:31.999Z,10.30
2018-08-19T19:37:02.228Z,10.40
2018-08-19T19:39:32.394Z,10.93
2018-08-19T19:42:09.988Z,10.40
2018-08-19T19:44:40.985Z,10.93
2018-08-19T19:47:11.352Z,11.23
2018-08-19T19:49:47.238Z,11.43
2018-08-19T19:52:17.172Z,12.13
2018-08-19T19:54:47.039Z,12.60
2018-08-19T19:57:17.165Z,13.63
2018-08-19T19:59:47.061Z,12.50
2018-08-19T20:02:22.996Z,12.97
2018-08-19T20:04:52.984Z,12.03
2018-08-19T20:07:23.044Z,12.63
2018-08-19T20:09:53.012Z,13.73
2018-08-19T20:12:29.892Z,12.37
2018-08-19T20:15:02.379Z,13.27
2018-08-19T20:17:33.117Z,12.30
2018-08-19T20:20:03.798Z,12.87
2018-08-19T20:22:34.893Z,12.87
2018-08-19T20:25:06.182Z,13.43
2018-08-19T20:27:37.626Z,13.43
2018-08-19T20:30:08.198Z,12.80
2018-08-19T20:32:39.064Z,13.67
2018-08-19T20:35:09.981Z,12.83
2018-08-19T20:37:40.635Z,12.93
2018-08-19T20:40:11.261Z,12.70
2018-08-19T20:42:42.902Z,12.77
2018-08-19T20:45:13.987Z,12.93
2018-08-19T20:47:45.164Z,13.40
2018-08-19T20:50:16.294Z,13.10
2018-08-19T20:52:48.001Z,13.47
2018-08-19T20:55:18.926Z,12.63
2018-08-19T20:57:49.881Z,12.13
2018-08-19T21:00:21.420Z,12.60
2018-08-19T21:02:52.130Z,13.03
2018-08-19T21:05:23.575Z,12.73
2018-08-19T21:07:59.352Z,11.87
2018-08-19T21:10:30.677Z,12.53
2018-08-19T21:13:01.416Z,12.57
2018-08-19T21:15:37.156Z,11.43
2018-08-19T21:18:08.631Z,12.77
2018-08-19T21:20:39.881Z,12.30
2018-08-19T21:23:10.772Z,12.70
2018-08-19T21:25:47.442Z,12.17
2018-08-19T21:28:19.212Z,12.60
2018-08-19T21:30:50.118Z,12.37
2018-08-19T21:33:21.288Z,13.07
2018-08-19T21:35:53.591Z,12.87
2018-08-19T21:38:24.333Z,11.80
2018-08-19T21:40:56.987Z,12.43
2018-08-19T21:43:29.964Z,11.80
2018-08-19T21:46:01.694Z,12.27
2018-08-19T21:48:32.609Z,12.57
2018-08-19T21:51:03.389Z,11.97
2018-08-19T21:53:33.569Z,11.17
2018-08-19T21:56:04.390Z,11.10
2018-08-19T21:58:35.095Z,11.53
2018-08-19T22:01:10.268Z,12.17
2018-08-19T22:03:46.484Z,12.17
2018-08-19T22:06:17.399Z,10.87
2018-08-19T22:08:48.292Z,11.50
2018-08-19T22:11:18.968Z,11.47
2018-08-19T22:13:49.734Z,11.90
2018-08-19T22:16:20.675Z,11.20
2018-08-19T22:18:51.558Z,11.30
2018-08-19T22:21:24.234Z,11.77
2018-08-19T22:23:57.288Z,11.30
2018-08-19T22:26:28.460Z,12.00
2018-08-19T22:29:10.000Z,12.23
2018-08-19T22:31:41.089Z,12.37
2018-08-19T22:34:11.994Z,12.57
2018-08-19T22:36:43.014Z,11.80
2018-08-19T22:39:17.266Z,12.53
2018-08-19T22:41:51.020Z,12.50
2018-08-19T22:44:21.591Z,12.90
2018-08-19T22:46:52.549Z,12.97
2018-08-19T22:49:23.589Z,13.37
2018-08-19T22:51:55.289Z,12.40
2018-08-19T22:54:25.966Z,13.93
2018-08-19T22:56:57.116Z,12.80
2018-08-19T22:59:28.393Z,12.50
2018-08-19T23:01:59.427Z,12.50
2018-08-19T23:04:30.516Z,13.50
2018-08-19T23:07:01.596Z,13.03
2018-08-19T23:09:32.123Z,12.47
2018-08-19T23:12:03.117Z,13.57
2018-08-19T23:14:44.807Z,13.70
2018-08-19T23:17:15.728Z,14.10
2018-08-19T23:19:49.004Z,15.20
2018-08-19T23:22:20.006Z,16.07
2018-08-19T23:24:50.704Z,15.13
2018-08-19T23:27:21.403Z,15.47
2018-08-19T23:29:52.198Z,15.37
2018-08-19T23:32:23.080Z,17.23
2018-08-19T23:34:53.943Z,16.87
2018-08-19T23:37:25.011Z,15.80
2018-08-19T23:39:55.870Z,16.17
2018-08-19T23:42:26.013Z,16.13
2018-08-19T23:44:56.717Z,15.03
2018-08-19T23:47:27.387Z,15.30
2018-08-19T23:49:58.113Z,15.27
2018-08-19T23:52:28.795Z,14.17
2018-08-19T23:54:59.720Z,14.30
2018-08-19T23:57:30.494Z,14.40
